Walhalla, ND

7:17 PM CDT on October 22, 2014 (GMT -0500)
Grafton Municipal | Change Station
CLOSE
Current Station
Airport
Location: Grafton,
Elevation: 823 ft
Nearby Weather Stations

Elev 823 ft 48.40 °N, 97.37 °W | Updated 22 minutes ago

Partly Cloudy
Partly Cloudy
54 °F
Feels Like 54 °F
N
9
Wind Variable Wind from SSW

Today
High -- | Low -- °F
--% Chance of Precip.
Yesterday
High -- | Low -- °F
Precip. -- in
8:02 AM 6:28 PM
Waning Crescent, 1% visible
Pressure 29.81 in
Visibility 10.0 miles
Clouds Few 12000 ft
Dew Point 54 °F
Humidity 100%
Rainfall 0.00 in
Snow Depth Not available.
UV 0 out of 12
Pollen 1.90 out of 12
Air Quality Not available.
Flu Activity Local Activity
METAR KGAF 222355Z AUTO 20008KT 10SM FEW120 12/12 A2981 RMK AO2

More Conditions Fewer Conditions

Pressure 29.81 in
Visibility 10.0 miles
Clouds Few 12000 ft
Dew Point 54 °F
Humidity 100%
Rainfall 0.00 in
Snow Depth Not available.
UV 0 out of 12
Pollen 1.90 out of 12
Air Quality Not available.
Flu Activity Local Activity
METAR KGAF 222355Z AUTO 20008KT 10SM FEW120 12/12 A2981 RMK AO2

More Conditions Fewer Conditions

10-Day Weather Forecast

Almanac

Astronomy

Oct. 22, 2014 Rise Set
Actual Time 8:02 AM CDT 6:28 PM CDT
Civil Twilight 7:30 AM CDT 7:00 PM CDT
Nautical Twilight 6:53 AM CDT 7:37 PM CDT
Astronomical Twilight 6:17 AM CDT 8:13 PM CDT
Moon 6:39 AM CDT (10/22) 5:59 PM CDT (10/22)
Length of Visible Light 11h 30m
Length of Day
10h 25m
Tomorrow will be 3m 24s shorter.
Waning Crescent, 1% of the Moon is Illuminated
Today
Waning Crescent
Oct 23
New
Oct 30
First Quarter
Nov 6
Full
Nov 14
Last Quarter

Today's Extremes

State Highs State Lows

Community

WunderPhotos

Upload Photos

1,764,089 photos uploaded!

WunderBlogs® & News

Nearby

Snow Depth

Station Depth Elevation
No new snow has been reported.

Earthquake Activity

City Distance Mag. Time & Date
No recent earthquake activity has been reported nearby.
Minimum magnitude displayed is 2.5.

Coastal Water Temperatures

Place Temperature
No Stations Reporting

Nearby Weather Stations